Marin City, California
Current Conditions -  °F | °C
As of 9:56 AM on Thursday 30 Oct 2014 (Local Time) from KSFO Reporting Station
Broken Clouds Broken Clouds  
Wind Chill: 66°   Ceiling: 18000
Heat Index: 66°   Visibility: 10mi
Dew Point: 60°   Wind: 0mph
Humidity: 81%   Direction: NA
Pressure: 29.94"   Gusts: NA
Location:  37.8489°N, 122.496°W
Report Text: KSFO 301656Z 00000KT 10SM BKN180 19/16 A2994 RMK AO2 SLP140 T01890156 $
Loading
Personal Weather Stations






























Interactive Weather Map
Tropical Storm Tracking
New forecast layout! Learn more

10-Day Weather Forecast

Advertisements
Track Severe Weather on mobile